Time;durP1;ratioP1;P1;durP2;ratioP2;P2;SDS_P1;SDS_P2;PMS_P1;PMS_P2;Temp;Humidity;BMP_temperature;BMP_pressure;BME280_temperature;BME280_humidity;BME280_pressure;Samples;Min_cycle;Max_cycle;Signal;HPM_P1;HPM_P2
2023/10/23 00:00:43;;;;;;;3.10;1.60;;;;;;;;;;5053590;28;20021;-82
2023/10/23 00:03:08;;;;;;;2.78;1.27;;;;;;;;;;5052373;28;20028;-82
2023/10/23 00:05:36;;;;;;;4.70;1.90;;;;;;;;;;5054530;28;20472;-82
2023/10/23 00:08:01;;;;;;;2.83;1.75;;;;;;;;;;5054282;28;20459;-82
2023/10/23 00:10:27;;;;;;;4.50;1.80;;;;;;;;;;5053928;28;20103;-82
2023/10/23 00:12:52;;;;;;;3.33;1.85;;;;;;;;;;5053365;28;20031;-81
2023/10/23 00:15:18;;;;;;;2.75;1.58;;;;;;;;;;5053663;28;20512;-82
2023/10/23 00:17:45;;;;;;;3.65;1.80;;;;;;;;;;5052393;28;20021;-81
2023/10/23 00:20:11;;;;;;;3.28;1.65;;;;;;;;;;5052299;28;20095;-82
2023/10/23 00:22:37;;;;;;;3.42;1.83;;;;;;;;;;5046053;28;20032;-82
2023/10/23 00:25:02;;;;;;;4.03;1.95;;;;;;;;;;5071744;28;20396;-82
2023/10/23 00:27:28;;;;;;;2.63;1.50;;;;;;;;;;5072960;28;20020;-81
2023/10/23 00:29:56;;;;;;;5.97;1.75;;;;;;;;;;5063401;28;20103;-87
2023/10/23 00:32:22;;;;;;;3.78;1.83;;;;;;;;;;5056316;28;20024;-87
2023/10/23 00:34:47;;;;;;;3.30;1.88;;;;;;;;;;5056223;28;20467;-87
2023/10/23 00:37:13;;;;;;;3.03;1.80;;;;;;;;;;5078257;28;20008;-87
2023/10/23 00:39:41;;;;;;;4.30;1.70;;;;;;;;;;5060542;28;20108;-87
2023/10/23 00:42:07;;;;;;;4.55;1.67;;;;;;;;;;5062668;28;20444;-87
2023/10/23 00:44:32;;;;;;;4.47;1.75;;;;;;;;;;5081467;28;20028;-82
2023/10/23 00:46:57;;;;;;;4.28;1.77;;;;;;;;;;5056326;28;20073;-82
2023/10/23 00:49:23;;;;;;;5.57;1.95;;;;;;;;;;5057794;28;20484;-82
2023/10/23 00:51:49;;;;;;;6.00;2.15;;;;;;;;;;5057543;28;20028;-82
2023/10/23 00:54:15;;;;;;;4.00;2.05;;;;;;;;;;5058979;28;20599;-82
2023/10/23 00:56:43;;;;;;;4.40;1.83;;;;;;;;;;5053736;28;20028;-82
2023/10/23 00:59:10;;;;;;;3.75;1.98;;;;;;;;;;5060373;28;20023;-80
2023/10/23 01:01:38;;;;;;;7.60;2.25;;;;;;;;;;5053353;28;20021;-80
2023/10/23 01:04:09;;;;;;;6.15;1.88;;;;;;;;;;5053445;28;20028;-79
2023/10/23 01:06:37;;;;;;;5.20;2.13;;;;;;;;;;5053890;28;20025;-79
2023/10/23 01:09:03;;;;;;;3.83;1.92;;;;;;;;;;5057077;28;20388;-79
2023/10/23 01:11:28;;;;;;;3.33;1.80;;;;;;;;;;5074943;28;20552;-79
2023/10/23 01:13:54;;;;;;;3.28;1.92;;;;;;;;;;5074977;28;20019;-79
2023/10/23 01:16:19;;;;;;;2.70;1.33;;;;;;;;;;5056132;28;20107;-79
2023/10/23 01:18:44;;;;;;;2.45;1.48;;;;;;;;;;5056918;28;20097;-79
2023/10/23 01:21:09;;;;;;;6.03;1.90;;;;;;;;;;5056396;28;20027;-79
2023/10/23 01:23:36;;;;;;;4.55;1.60;;;;;;;;;;5056151;28;20036;-79
2023/10/23 01:26:01;;;;;;;2.72;1.70;;;;;;;;;;5055023;28;20035;-81
2023/10/23 01:28:26;;;;;;;3.95;1.55;;;;;;;;;;5056432;28;20016;-80
2023/10/23 01:30:52;;;;;;;1.25;0.90;;;;;;;;;;5056085;28;20024;-79
2023/10/23 01:33:17;;;;;;;0.98;0.63;;;;;;;;;;5056101;28;20477;-79
2023/10/23 01:35:43;;;;;;;3.63;1.02;;;;;;;;;;5055010;28;20024;-79
2023/10/23 01:38:09;;;;;;;2.63;1.20;;;;;;;;;;5074197;28;20502;-79
2023/10/23 01:40:34;;;;;;;3.38;1.50;;;;;;;;;;5058884;28;20483;-78
2023/10/23 01:43:02;;;;;;;5.57;1.33;;;;;;;;;;5062463;28;20028;-79
2023/10/23 01:45:28;;;;;;;6.07;1.95;;;;;;;;;;5056560;28;20607;-80
2023/10/23 01:47:56;;;;;;;3.10;1.60;;;;;;;;;;5056137;28;20029;-79
2023/10/23 01:50:23;;;;;;;4.70;1.48;;;;;;;;;;5064298;28;20025;-78
2023/10/23 01:52:49;;;;;;;4.38;2.03;;;;;;;;;;5068718;28;20040;-79
2023/10/23 01:55:15;;;;;;;3.75;1.75;;;;;;;;;;5064871;28;20022;-87
2023/10/23 01:57:41;;;;;;;5.80;2.47;;;;;;;;;;5064229;28;20107;-87
2023/10/23 02:00:09;;;;;;;5.57;2.05;;;;;;;;;;5085957;28;20025;-87
2023/10/23 02:02:35;;;;;;;4.88;1.88;;;;;;;;;;5067563;28;20054;-87
2023/10/23 02:05:01;;;;;;;4.15;1.90;;;;;;;;;;5063069;28;20112;-86
2023/10/23 02:07:27;;;;;;;4.85;2.10;;;;;;;;;;5060770;28;20035;-87
2023/10/23 02:09:53;;;;;;;7.35;2.25;;;;;;;;;;5060537;28;20077;-87
2023/10/23 02:12:19;;;;;;;4.63;1.98;;;;;;;;;;5065241;28;20396;-87
2023/10/23 02:14:44;;;;;;;4.93;1.95;;;;;;;;;;5058498;28;20028;-86
2023/10/23 02:17:10;;;;;;;6.75;2.17;;;;;;;;;;5058567;28;20062;-86
2023/10/23 02:19:35;;;;;;;5.30;2.70;;;;;;;;;;5057244;28;20027;-87
2023/10/23 02:22:03;;;;;;;3.65;1.92;;;;;;;;;;5058333;28;20103;-87
2023/10/23 02:24:28;;;;;;;5.00;1.60;;;;;;;;;;5058537;28;20371;-88
2023/10/23 02:26:54;;;;;;;6.50;2.28;;;;;;;;;;5057612;28;20021;-86
2023/10/23 02:29:19;;;;;;;4.93;2.10;;;;;;;;;;5052215;28;20100;-87
2023/10/23 02:31:44;;;;;;;6.55;1.80;;;;;;;;;;5058232;28;20029;-85
2023/10/23 02:34:10;;;;;;;4.18;2.13;;;;;;;;;;5057747;28;20016;-87
2023/10/23 02:36:35;;;;;;;4.43;1.90;;;;;;;;;;5054142;28;20028;-87
2023/10/23 02:39:00;;;;;;;3.25;1.60;;;;;;;;;;5057275;28;20024;-87
2023/10/23 02:41:30;;;;;;;2.22;1.33;;;;;;;;;;5057381;28;20025;-87
2023/10/23 02:43:58;;;;;;;2.65;1.30;;;;;;;;;;5057239;28;20375;-87
2023/10/23 02:46:24;;;;;;;2.75;1.33;;;;;;;;;;5074660;28;20090;-87
2023/10/23 02:48:50;;;;;;;7.00;1.98;;;;;;;;;;5057323;28;20498;-87
2023/10/23 02:51:16;;;;;;;3.65;1.75;;;;;;;;;;5057212;28;20136;-86
2023/10/23 02:53:45;;;;;;;4.93;1.83;;;;;;;;;;5062781;28;20020;-78
2023/10/23 02:56:11;;;;;;;3.75;1.65;;;;;;;;;;5059597;28;20027;-79
2023/10/23 02:58:37;;;;;;;2.92;1.33;;;;;;;;;;5055129;28;20043;-79
2023/10/23 03:01:03;;;;;;;3.00;1.75;;;;;;;;;;5056047;28;20348;-79
2023/10/23 03:03:28;;;;;;;4.30;1.80;;;;;;;;;;5064095;28;20506;-79
2023/10/23 03:05:57;;;;;;;2.92;1.73;;;;;;;;;;5080347;28;20020;-79
2023/10/23 03:08:22;;;;;;;2.88;1.70;;;;;;;;;;5046777;28;20051;-79
2023/10/23 03:10:49;;;;;;;7.72;2.28;;;;;;;;;;5061239;28;20032;-79
2023/10/23 03:13:17;;;;;;;5.82;2.08;;;;;;;;;;5062995;28;20013;-79
2023/10/23 03:15:43;;;;;;;15.05;2.30;;;;;;;;;;5064720;28;20017;-79
2023/10/23 03:18:09;;;;;;;10.05;1.23;;;;;;;;;;5064551;28;20017;-79
2023/10/23 03:20:36;;;;;;;3.30;1.65;;;;;;;;;;5055424;28;20036;-79
2023/10/23 03:23:05;;;;;;;2.75;1.60;;;;;;;;;;5058645;28;20027;-80
2023/10/23 03:25:31;;;;;;;4.60;1.50;;;;;;;;;;5057866;28;20504;-79
2023/10/23 03:27:56;;;;;;;3.78;1.50;;;;;;;;;;5053994;28;20130;-77
2023/10/23 03:30:22;;;;;;;3.60;1.77;;;;;;;;;;5054493;28;20021;-78
2023/10/23 03:32:47;;;;;;;4.68;1.80;;;;;;;;;;5054689;28;20028;-80
2023/10/23 03:35:12;;;;;;;2.28;1.65;;;;;;;;;;5054514;28;20092;-79
2023/10/23 03:37:38;;;;;;;4.47;1.88;;;;;;;;;;5054798;28;20020;-78
2023/10/23 03:40:03;;;;;;;5.00;1.50;;;;;;;;;;5053981;28;20020;-79
2023/10/23 03:42:29;;;;;;;4.10;1.80;;;;;;;;;;5054344;28;20012;-78
2023/10/23 03:44:59;;;;;;;2.60;1.70;;;;;;;;;;5054593;28;20024;-79
2023/10/23 03:47:24;;;;;;;6.90;1.70;;;;;;;;;;5054439;28;20013;-79
2023/10/23 03:49:50;;;;;;;5.28;2.00;;;;;;;;;;5053564;28;20028;-79
2023/10/23 03:52:16;;;;;;;3.83;1.70;;;;;;;;;;5053225;28;20055;-79
2023/10/23 03:54:42;;;;;;;4.68;2.05;;;;;;;;;;5053667;28;20055;-79
2023/10/23 03:57:07;;;;;;;3.00;1.67;;;;;;;;;;5054052;28;20044;-79
2023/10/23 03:59:32;;;;;;;4.78;1.60;;;;;;;;;;5053181;28;20066;-80
2023/10/23 04:01:58;;;;;;;4.13;2.00;;;;;;;;;;5052785;28;20499;-79
2023/10/23 04:04:27;;;;;;;4.05;1.73;;;;;;;;;;5053164;28;20107;-80
2023/10/23 04:06:52;;;;;;;3.55;1.80;;;;;;;;;;5054732;28;20036;-79
2023/10/23 04:09:18;;;;;;;3.20;1.48;;;;;;;;;;5053985;28;20015;-79
2023/10/23 04:11:43;;;;;;;2.42;1.00;;;;;;;;;;5054494;28;20031;-79
2023/10/23 04:14:09;;;;;;;3.90;1.40;;;;;;;;;;5059968;28;20072;-81
2023/10/23 04:16:36;;;;;;;4.05;1.88;;;;;;;;;;5064891;28;20734;-81
2023/10/23 04:19:01;;;;;;;3.63;1.83;;;;;;;;;;5062913;28;20031;-87
2023/10/23 04:21:27;;;;;;;3.42;1.60;;;;;;;;;;5063413;28;20040;-87
2023/10/23 04:23:52;;;;;;;6.68;1.63;;;;;;;;;;5059357;28;20094;-87
2023/10/23 04:26:19;;;;;;;3.20;1.90;;;;;;;;;;5089341;28;20020;-86
2023/10/23 04:28:44;;;;;;;2.25;1.40;;;;;;;;;;5054280;28;20254;-87
2023/10/23 04:31:09;;;;;;;4.45;2.10;;;;;;;;;;5053613;28;20495;-87
2023/10/23 04:33:35;;;;;;;3.30;1.98;;;;;;;;;;5052537;28;20066;-87
2023/10/23 04:36:00;;;;;;;8.60;2.17;;;;;;;;;;5054190;28;20116;-87
2023/10/23 04:38:28;;;;;;;5.47;1.85;;;;;;;;;;5053956;28;20027;-86
2023/10/23 04:40:54;;;;;;;4.25;2.17;;;;;;;;;;5054191;28;20028;-87
2023/10/23 04:43:22;;;;;;;5.20;1.90;;;;;;;;;;5077082;28;20506;-87
2023/10/23 04:45:55;;;;;;;6.97;1.98;;;;;;;;;;5046587;28;20028;-86
2023/10/23 04:48:20;;;;;;;;;;;;;;;;;;5058930;28;20454;-87
2023/10/23 04:50:48;;;;;;;4.65;2.03;;;;;;;;;;5059507;28;19934;-86
2023/10/23 04:53:13;;;;;;;2.83;1.90;;;;;;;;;;5060179;28;20017;-87
2023/10/23 04:55:42;;;;;;;4.88;1.77;;;;;;;;;;5078146;28;20107;-87
2023/10/23 04:58:08;;;;;;;11.23;1.90;;;;;;;;;;5059711;28;20028;-87
2023/10/23 05:00:37;;;;;;;5.78;1.88;;;;;;;;;;5049841;28;20024;-87
2023/10/23 05:03:05;;;;;;;7.18;1.75;;;;;;;;;;5058453;28;20043;-87
2023/10/23 05:05:31;;;;;;;7.53;1.58;;;;;;;;;;5059811;28;20146;-87
2023/10/23 05:08:00;;;;;;;4.28;1.95;;;;;;;;;;5060028;28;20048;-87
2023/10/23 05:10:25;;;;;;;3.08;1.80;;;;;;;;;;5059444;28;20406;-87
2023/10/23 05:12:51;;;;;;;5.30;2.45;;;;;;;;;;5058883;28;20016;-87
2023/10/23 05:15:17;;;;;;;3.88;1.90;;;;;;;;;;5059997;28;20037;-87
2023/10/23 05:17:42;;;;;;;5.38;2.15;;;;;;;;;;5064078;28;20020;-87
2023/10/23 05:20:08;;;;;;;3.97;2.28;;;;;;;;;;5062636;28;20383;-87
2023/10/23 05:22:34;;;;;;;4.35;1.75;;;;;;;;;;5078727;28;20021;-87
2023/10/23 05:24:59;;;;;;;4.65;1.70;;;;;;;;;;5061884;28;20111;-87
2023/10/23 05:27:27;;;;;;;2.63;1.42;;;;;;;;;;5071323;28;20036;-78
2023/10/23 05:29:53;;;;;;;3.22;1.52;;;;;;;;;;5073128;28;20020;-87
2023/10/23 05:32:20;;;;;;;3.97;1.63;;;;;;;;;;5068518;28;20080;-87
2023/10/23 05:34:45;;;;;;;3.67;1.40;;;;;;;;;;5065562;28;20032;-81
2023/10/23 05:37:11;;;;;;;2.67;1.67;;;;;;;;;;5066193;28;20021;-81
2023/10/23 05:39:37;;;;;;;4.75;1.50;;;;;;;;;;5066470;28;20024;-81
2023/10/23 05:42:05;;;;;;;3.00;1.80;;;;;;;;;;5059667;28;20183;-81
2023/10/23 05:44:31;;;;;;;4.00;1.88;;;;;;;;;;5059870;28;20024;-81
2023/10/23 05:47:01;;;;;;;2.97;1.75;;;;;;;;;;5063226;28;20084;-81
2023/10/23 05:49:29;;;;;;;2.28;1.30;;;;;;;;;;5061077;28;20375;-81
2023/10/23 05:51:54;;;;;;;3.67;1.90;;;;;;;;;;5059009;28;20056;-81
2023/10/23 05:54:19;;;;;;;4.68;1.90;;;;;;;;;;5056526;28;20055;-81
2023/10/23 05:56:45;;;;;;;3.50;1.95;;;;;;;;;;5055395;28;20479;-82
2023/10/23 05:59:10;;;;;;;4.22;1.77;;;;;;;;;;5055588;28;20069;-82
2023/10/23 06:01:36;;;;;;;3.22;1.73;;;;;;;;;;5072515;28;20020;-81
2023/10/23 06:04:07;;;;;;;5.50;1.90;;;;;;;;;;5073515;28;20410;-81
2023/10/23 06:06:32;;;;;;;8.63;2.22;;;;;;;;;;5055152;28;20029;-81
2023/10/23 06:08:57;;;;;;;3.25;1.80;;;;;;;;;;5054259;28;20031;-81
2023/10/23 06:11:25;;;;;;;3.78;2.05;;;;;;;;;;5054151;28;20016;-81
2023/10/23 06:13:51;;;;;;;5.22;2.25;;;;;;;;;;5054999;28;20063;-81
2023/10/23 06:16:16;;;;;;;4.57;2.13;;;;;;;;;;5055165;28;20035;-81
2023/10/23 06:18:41;;;;;;;3.83;1.80;;;;;;;;;;5054899;28;20074;-81
2023/10/23 06:21:07;;;;;;;4.57;1.63;;;;;;;;;;5055814;28;20029;-82
2023/10/23 06:23:37;;;;;;;3.50;2.22;;;;;;;;;;5055294;28;20487;-81
2023/10/23 06:26:03;;;;;;;5.20;1.85;;;;;;;;;;5051270;28;20025;-81
2023/10/23 06:28:29;;;;;;;4.93;1.98;;;;;;;;;;5068255;28;20035;-82
2023/10/23 06:30:54;;;;;;;6.70;1.70;;;;;;;;;;5054868;28;20028;-82
2023/10/23 06:33:19;;;;;;;10.13;2.33;;;;;;;;;;5055683;28;20124;-82
2023/10/23 06:35:55;;;;;;;8.73;1.67;;;;;;;;;;5055896;28;20107;-82
2023/10/23 06:38:23;;;;;;;5.40;2.05;;;;;;;;;;5056856;28;20093;-81
2023/10/23 06:40:49;;;;;;;4.10;1.77;;;;;;;;;;5081390;28;20023;-81
2023/10/23 06:43:15;;;;;;;4.85;1.83;;;;;;;;;;5060347;28;20032;-82
2023/10/23 06:45:41;;;;;;;4.22;1.85;;;;;;;;;;5060630;28;20099;-82
2023/10/23 06:48:09;;;;;;;4.65;2.22;;;;;;;;;;5060590;28;20028;-81
2023/10/23 06:50:34;;;;;;;4.80;1.70;;;;;;;;;;5058330;28;20024;-80
2023/10/23 06:53:00;;;;;;;6.47;2.33;;;;;;;;;;5061437;28;20027;-81
2023/10/23 06:55:27;;;;;;;6.10;2.22;;;;;;;;;;5057309;28;20020;-81
2023/10/23 07:00:38;;;;;;;5.28;1.80;;;;;;;;;;5076660;28;20476;-82
2023/10/23 07:03:04;;;;;;;4.43;1.85;;;;;;;;;;5078926;28;20128;-81
2023/10/23 07:05:30;;;;;;;6.18;1.70;;;;;;;;;;5055440;28;20043;-81
2023/10/23 07:07:58;;;;;;;4.70;2.00;;;;;;;;;;5073729;28;20524;-81
2023/10/23 07:10:23;;;;;;;6.03;1.67;;;;;;;;;;5055812;28;20039;-82
2023/10/23 07:12:48;;;;;;;5.90;2.03;;;;;;;;;;5072436;28;20028;-81
2023/10/23 07:15:16;;;;;;;6.88;1.90;;;;;;;;;;5055645;28;20131;-82
2023/10/23 07:17:41;;;;;;;4.70;1.77;;;;;;;;;;5055324;28;20016;-81
2023/10/23 07:20:10;;;;;;;7.68;2.00;;;;;;;;;;5073400;28;20482;-82
2023/10/23 07:22:36;;;;;;;5.38;1.95;;;;;;;;;;5054993;28;20025;-82
2023/10/23 07:25:02;;;;;;;6.90;1.90;;;;;;;;;;5054564;28;20111;-81
2023/10/23 07:27:28;;;;;;;4.95;1.70;;;;;;;;;;5054131;28;20101;-82
2023/10/23 07:29:53;;;;;;;6.55;1.90;;;;;;;;;;5053751;28;20081;-81
2023/10/23 07:32:19;;;;;;;9.18;2.20;;;;;;;;;;5054264;28;20047;-82
2023/10/23 07:34:44;;;;;;;4.68;1.90;;;;;;;;;;5054779;28;20024;-82
2023/10/23 07:37:11;;;;;;;8.80;2.13;;;;;;;;;;5053961;28;20069;-82
2023/10/23 07:39:37;;;;;;;5.65;2.30;;;;;;;;;;5054049;28;20043;-82
2023/10/23 07:42:02;;;;;;;9.57;2.65;;;;;;;;;;5053826;28;20103;-82
2023/10/23 07:44:28;;;;;;;9.05;2.65;;;;;;;;;;5055157;28;20044;-82
2023/10/23 07:46:53;;;;;;;8.32;2.75;;;;;;;;;;5072966;28;20080;-82
2023/10/23 07:49:19;;;;;;;6.32;2.10;;;;;;;;;;5059825;28;20016;-82
2023/10/23 07:51:45;;;;;;;13.73;3.05;;;;;;;;;;5061704;28;20941;-82
2023/10/23 07:54:10;;;;;;;8.57;2.05;;;;;;;;;;5061185;28;20044;-81
2023/10/23 07:56:35;;;;;;;7.68;2.42;;;;;;;;;;5059105;28;20029;-82
2023/10/23 07:59:01;;;;;;;5.80;2.17;;;;;;;;;;5075677;28;20012;-82
2023/10/23 08:01:26;;;;;;;5.85;2.20;;;;;;;;;;5057906;28;20028;-82
2023/10/23 08:03:52;;;;;;;7.45;2.50;;;;;;;;;;5059016;28;20468;-82
2023/10/23 08:06:18;;;;;;;7.63;2.35;;;;;;;;;;5057013;28;20514;-82
2023/10/23 08:08:46;;;;;;;10.23;2.65;;;;;;;;;;5054664;28;20032;-82
2023/10/23 08:11:13;;;;;;;14.68;2.33;;;;;;;;;;5056112;28;20040;-81
2023/10/23 08:13:38;;;;;;;8.73;2.25;;;;;;;;;;5053763;28;20077;-80
2023/10/23 08:16:04;;;;;;;8.02;2.40;;;;;;;;;;5054126;28;20021;-82
2023/10/23 08:18:32;;;;;;;6.65;2.05;;;;;;;;;;5053455;28;20146;-82
2023/10/23 08:20:57;;;;;;;6.07;2.15;;;;;;;;;;5053951;28;20371;-81
2023/10/23 08:23:25;;;;;;;10.38;2.03;;;;;;;;;;5054099;28;20016;-81
2023/10/23 08:25:50;;;;;;;4.18;1.90;;;;;;;;;;5053938;28;20027;-82
2023/10/23 08:28:15;;;;;;;6.28;2.13;;;;;;;;;;5054008;28;20100;-82
2023/10/23 08:30:41;;;;;;;8.05;1.80;;;;;;;;;;5071489;28;20028;-82
2023/10/23 08:33:07;;;;;;;6.22;2.33;;;;;;;;;;5052628;28;20035;-82
2023/10/23 08:35:32;;;;;;;4.30;1.88;;;;;;;;;;5053831;28;20039;-82
2023/10/23 08:37:57;;;;;;;7.22;2.30;;;;;;;;;;5053278;28;20021;-82
2023/10/23 08:40:23;;;;;;;6.57;2.15;;;;;;;;;;5053600;28;20045;-82
2023/10/23 08:42:48;;;;;;;5.97;2.05;;;;;;;;;;5053426;28;20024;-82
2023/10/23 08:45:19;;;;;;;7.07;2.00;;;;;;;;;;5053767;28;20052;-82
2023/10/23 08:47:45;;;;;;;3.88;1.88;;;;;;;;;;5052468;28;20351;-82
2023/10/23 08:50:11;;;;;;;5.43;2.22;;;;;;;;;;5052823;28;20040;-82
2023/10/23 08:52:57;;;;;;;5.28;1.80;;;;;;;;;;5052940;28;20485;-82
2023/10/23 08:55:25;;;;;;;10.70;2.70;;;;;;;;;;5054375;28;20054;-82
2023/10/23 08:57:54;;;;;;;9.70;1.95;;;;;;;;;;5054287;28;20440;-82
2023/10/23 09:00:23;;;;;;;6.75;1.92;;;;;;;;;;5055493;28;20021;-82
2023/10/23 09:02:52;;;;;;;6.82;2.05;;;;;;;;;;5059086;28;20033;-82
2023/10/23 09:05:20;;;;;;;8.40;1.67;;;;;;;;;;5060484;28;20482;-82
2023/10/23 09:07:46;;;;;;;10.40;2.45;;;;;;;;;;5058130;28;20055;-82
2023/10/23 09:10:11;;;;;;;12.20;2.15;;;;;;;;;;5043514;28;20100;-82
2023/10/23 09:12:37;;;;;;;3.80;1.95;;;;;;;;;;5056324;28;20036;-82
2023/10/23 09:15:13;;;;;;;5.35;2.35;;;;;;;;;;5057345;28;20017;-82
2023/10/23 09:17:39;;;;;;;8.15;2.22;;;;;;;;;;5056298;28;20024;-82
2023/10/23 09:20:18;;;;;;;4.45;1.70;;;;;;;;;;5071540;28;20040;-82
2023/10/23 09:22:47;;;;;;;9.43;2.17;;;;;;;;;;5053331;28;20048;-82
2023/10/23 09:25:14;;;;;;;7.15;2.15;;;;;;;;;;5070968;28;20473;-82
2023/10/23 09:27:45;;;;;;;4.70;2.00;;;;;;;;;;5053650;28;20032;-82
2023/10/23 09:30:13;;;;;;;9.05;2.72;;;;;;;;;;5075162;28;20020;-82
2023/10/23 09:32:39;;;;;;;7.15;2.53;;;;;;;;;;5055939;28;20511;-83
2023/10/23 09:35:10;;;;;;;9.57;2.13;;;;;;;;;;5056926;28;20043;-81
2023/10/23 09:37:38;;;;;;;6.60;2.10;;;;;;;;;;5056460;28;20016;-82
2023/10/23 09:40:13;;;;;;;11.48;2.25;;;;;;;;;;5056331;28;20388;-82
2023/10/23 09:42:40;;;;;;;7.15;2.33;;;;;;;;;;5089516;28;20114;-82
2023/10/23 09:45:05;;;;;;;6.50;2.28;;;;;;;;;;5056816;28;20492;-82
2023/10/23 09:47:31;;;;;;;14.05;2.72;;;;;;;;;;5056177;28;20025;-83
2023/10/23 09:49:58;;;;;;;9.98;2.22;;;;;;;;;;5056088;28;20032;-82
2023/10/23 09:52:25;;;;;;;19.98;6.93;;;;;;;;;;5054901;28;20353;-81
2023/10/23 09:54:50;;;;;;;9.68;3.25;;;;;;;;;;5056318;28;20387;-82
2023/10/23 09:57:17;;;;;;;11.43;2.70;;;;;;;;;;5056555;28;20017;-82
2023/10/23 09:59:46;;;;;;;5.80;2.83;;;;;;;;;;5056496;28;20033;-82
2023/10/23 10:02:13;;;;;;;11.38;3.00;;;;;;;;;;5054653;28;20017;-82
2023/10/23 10:04:44;;;;;;;7.30;2.88;;;;;;;;;;5057487;28;20083;-82
2023/10/23 10:07:30;;;;;;;9.52;2.65;;;;;;;;;;5094203;28;20094;-82
2023/10/23 10:09:55;;;;;;;10.75;3.13;;;;;;;;;;5055136;28;20017;-82
2023/10/23 10:12:22;;;;;;;5.50;2.55;;;;;;;;;;5081713;28;20100;-82
2023/10/23 10:14:50;;;;;;;9.13;3.85;;;;;;;;;;5055830;28;20013;-82
2023/10/23 10:17:19;;;;;;;10.82;3.80;;;;;;;;;;5080085;28;20016;-82
2023/10/23 10:19:45;;;;;;;14.13;4.70;;;;;;;;;;5076549;28;20029;-82
2023/10/23 10:22:11;;;;;;;15.63;6.32;;;;;;;;;;5060177;28;20009;-82
2023/10/23 10:24:37;;;;;;;42.72;26.55;;;;;;;;;;5077883;28;20107;-82
2023/10/23 10:27:03;;;;;;;43.47;25.17;;;;;;;;;;5092674;28;20479;-82
2023/10/23 10:29:30;;;;;;;43.10;24.55;;;;;;;;;;5076575;28;20115;-83
2023/10/23 10:32:05;;;;;;;34.85;20.67;;;;;;;;;;5073214;28;20066;-82
2023/10/23 10:34:37;;;;;;;31.10;16.23;;;;;;;;;;5075468;28;20025;-82
2023/10/23 10:37:05;;;;;;;22.45;6.65;;;;;;;;;;5090666;28;20483;-82
2023/10/23 10:39:52;;;;;;;15.40;4.55;;;;;;;;;;5054769;28;20023;-82
2023/10/23 10:42:23;;;;;;;7.47;3.58;;;;;;;;;;5055308;28;20016;-82
2023/10/23 10:44:52;;;;;;;9.68;3.35;;;;;;;;;;5056386;28;20472;-82
2023/10/23 10:47:18;;;;;;;10.07;3.10;;;;;;;;;;5055574;28;20040;-83
2023/10/23 10:49:44;;;;;;;14.85;3.03;;;;;;;;;;5055987;28;20094;-82
2023/10/23 10:52:30;;;;;;;13.85;3.30;;;;;;;;;;5088646;28;20384;-82
2023/10/23 10:55:22;;;;;;;19.52;4.50;;;;;;;;;;5062255;28;20360;-82
2023/10/23 10:57:47;;;;;;;11.88;4.40;;;;;;;;;;5068691;28;20036;-82
2023/10/23 11:00:13;;;;;;;12.10;4.85;;;;;;;;;;5055694;28;20017;-82
2023/10/23 11:02:41;;;;;;;15.30;4.82;;;;;;;;;;5054464;28;20024;-82
2023/10/23 11:05:07;;;;;;;11.40;5.50;;;;;;;;;;5054741;28;20024;-82
2023/10/23 11:07:36;;;;;;;12.80;6.53;;;;;;;;;;5054685;28;20033;-82
2023/10/23 11:10:01;;;;;;;21.77;7.13;;;;;;;;;;5053833;28;20040;-82
2023/10/23 11:12:26;;;;;;;26.55;7.20;;;;;;;;;;5054556;28;20036;-83
2023/10/23 11:14:52;;;;;;;22.17;6.80;;;;;;;;;;5055171;28;20031;-82
2023/10/23 11:17:17;;;;;;;21.00;7.45;;;;;;;;;;5071832;28;20021;-82
2023/10/23 11:19:43;;;;;;;14.20;5.88;;;;;;;;;;5055715;28;20070;-83
2023/10/23 11:22:09;;;;;;;17.52;5.18;;;;;;;;;;5075740;28;20027;-82
2023/10/23 11:24:34;;;;;;;11.82;5.13;;;;;;;;;;5055126;28;20020;-83
2023/10/23 11:27:00;;;;;;;15.48;5.00;;;;;;;;;;5055113;28;20082;-82
2023/10/23 11:29:26;;;;;;;9.88;3.80;;;;;;;;;;5074863;28;20035;-83
2023/10/23 11:31:52;;;;;;;16.17;4.25;;;;;;;;;;5077027;28;20054;-83
2023/10/23 11:34:17;;;;;;;18.58;3.90;;;;;;;;;;5058518;28;20362;-83
2023/10/23 11:36:43;;;;;;;9.30;2.90;;;;;;;;;;5058350;28;20020;-82
2023/10/23 11:39:08;;;;;;;16.83;3.65;;;;;;;;;;5074588;28;20009;-82
2023/10/23 11:41:34;;;;;;;10.27;4.07;;;;;;;;;;5056771;28;20499;-83
2023/10/23 11:44:00;;;;;;;15.20;3.35;;;;;;;;;;5075810;28;20025;-83
2023/10/23 11:46:26;;;;;;;14.02;2.92;;;;;;;;;;5057316;28;20059;-81
2023/10/23 11:48:52;;;;;;;10.60;3.08;;;;;;;;;;5055460;28;20020;-83
2023/10/23 11:51:20;;;;;;;12.45;2.92;;;;;;;;;;5054287;28;20039;-83
2023/10/23 11:53:46;;;;;;;8.85;3.03;;;;;;;;;;5054196;28;20023;-83
2023/10/23 11:56:11;;;;;;;13.48;3.28;;;;;;;;;;5039606;28;20016;-83
2023/10/23 11:58:37;;;;;;;9.90;2.67;;;;;;;;;;5053038;28;20032;-83
2023/10/23 12:01:04;;;;;;;10.75;2.97;;;;;;;;;;5054127;28;20111;-83
2023/10/23 12:03:30;;;;;;;6.55;2.60;;;;;;;;;;5053894;28;20024;-83
2023/10/23 12:05:55;;;;;;;8.52;2.70;;;;;;;;;;5071607;28;20024;-83
2023/10/23 12:08:23;;;;;;;8.82;2.80;;;;;;;;;;5056713;28;20024;-82
2023/10/23 12:11:06;;;;;;;7.47;2.45;;;;;;;;;;5054288;28;20032;-83
2023/10/23 12:13:31;;;;;;;11.93;2.30;;;;;;;;;;5053856;28;20047;-82
2023/10/23 12:15:57;;;;;;;7.45;2.65;;;;;;;;;;5054234;28;20024;-83
2023/10/23 12:18:26;;;;;;;11.95;2.70;;;;;;;;;;5052747;28;20123;-83
2023/10/23 12:20:51;;;;;;;7.05;2.20;;;;;;;;;;5052794;28;20024;-83
2023/10/23 12:23:17;;;;;;;7.45;1.90;;;;;;;;;;5053394;28;20024;-83
2023/10/23 12:25:50;;;;;;;9.30;2.03;;;;;;;;;;5053794;28;20092;-82
2023/10/23 12:28:15;;;;;;;8.40;2.00;;;;;;;;;;5053493;28;20427;-83
2023/10/23 12:30:40;;;;;;;11.18;2.53;;;;;;;;;;5054048;28;20516;-83
2023/10/23 12:33:13;;;;;;;9.05;2.30;;;;;;;;;;5051880;28;20025;-83
2023/10/23 12:35:43;;;;;;;6.38;1.88;;;;;;;;;;5059006;28;20050;-83
2023/10/23 12:38:10;;;;;;;10.07;2.17;;;;;;;;;;5055475;28;20314;-83
2023/10/23 12:40:36;;;;;;;11.45;2.35;;;;;;;;;;5051807;28;20364;-83
2023/10/23 12:43:04;;;;;;;6.30;2.42;;;;;;;;;;5053276;28;20024;-83
2023/10/23 12:45:33;;;;;;;6.68;1.58;;;;;;;;;;5057860;28;20074;-83
2023/10/23 12:48:01;;;;;;;10.60;2.03;;;;;;;;;;5075315;28;20140;-83
2023/10/23 12:50:27;;;;;;;8.68;2.60;;;;;;;;;;5056845;28;20032;-83
2023/10/23 12:52:52;;;;;;;6.40;1.95;;;;;;;;;;5058489;28;20025;-83
2023/10/23 12:55:18;;;;;;;11.25;2.58;;;;;;;;;;5057426;28;20028;-82
2023/10/23 12:57:44;;;;;;;8.63;2.03;;;;;;;;;;5075192;28;20021;-83
2023/10/23 13:00:13;;;;;;;7.18;1.85;;;;;;;;;;5058265;28;20031;-83
2023/10/23 13:02:39;;;;;;;5.10;1.85;;;;;;;;;;5055356;28;20031;-83
2023/10/23 13:05:05;;;;;;;8.20;2.03;;;;;;;;;;5058100;28;20688;-83
2023/10/23 13:07:30;;;;;;;10.13;2.55;;;;;;;;;;5057468;28;20032;-83
2023/10/23 13:09:55;;;;;;;4.88;1.40;;;;;;;;;;5057593;28;20456;-83
2023/10/23 13:12:20;;;;;;;7.97;1.75;;;;;;;;;;5075090;28;20020;-83
2023/10/23 13:14:46;;;;;;;10.63;1.88;;;;;;;;;;5057336;28;20028;-83
2023/10/23 13:17:11;;;;;;;7.00;1.92;;;;;;;;;;5056785;28;20012;-83
2023/10/23 13:19:36;;;;;;;6.35;1.60;;;;;;;;;;5056970;28;20029;-83
2023/10/23 13:22:04;;;;;;;5.57;1.90;;;;;;;;;;5056818;28;20021;-83
2023/10/23 13:24:30;;;;;;;6.43;1.88;;;;;;;;;;5056988;28;20111;-82
2023/10/23 13:26:57;;;;;;;7.25;1.52;;;;;;;;;;5056985;28;20036;-83
2023/10/23 13:29:22;;;;;;;4.32;1.73;;;;;;;;;;5057562;28;20032;-83
2023/10/23 13:31:48;;;;;;;11.65;2.10;;;;;;;;;;5056927;28;20086;-83
2023/10/23 13:34:16;;;;;;;7.90;1.92;;;;;;;;;;5057074;28;20024;-83
2023/10/23 13:36:41;;;;;;;6.72;1.95;;;;;;;;;;5056469;28;20012;-83
2023/10/23 13:39:08;;;;;;;8.40;1.73;;;;;;;;;;5056917;28;20017;-83
2023/10/23 13:41:33;;;;;;;6.40;1.48;;;;;;;;;;5074954;28;20410;-83
2023/10/23 13:43:58;;;;;;;5.72;1.30;;;;;;;;;;5056822;28;20088;-83
2023/10/23 13:46:24;;;;;;;2.90;1.30;;;;;;;;;;5056987;28;20056;-83
2023/10/23 13:48:49;;;;;;;3.17;1.20;;;;;;;;;;5055502;28;20017;-83
2023/10/23 13:51:15;;;;;;;6.32;1.63;;;;;;;;;;5056871;28;20162;-83
2023/10/23 13:53:40;;;;;;;2.38;0.98;;;;;;;;;;5059686;28;20027;-83
2023/10/23 13:56:06;;;;;;;4.95;1.48;;;;;;;;;;5057042;28;20019;-83
2023/10/23 13:58:31;;;;;;;4.95;1.40;;;;;;;;;;5074993;28;20096;-84
2023/10/23 14:00:57;;;;;;;5.18;1.58;;;;;;;;;;5058786;28;20042;-83
2023/10/23 14:03:25;;;;;;;8.57;1.70;;;;;;;;;;5059337;28;20032;-84
2023/10/23 14:05:51;;;;;;;6.90;1.48;;;;;;;;;;5060009;28;20448;-83
2023/10/23 14:08:16;;;;;;;4.78;1.35;;;;;;;;;;5059282;28;20024;-83
2023/10/23 14:10:42;;;;;;;5.38;1.60;;;;;;;;;;5057200;28;20047;-83
2023/10/23 14:13:07;;;;;;;5.72;1.95;;;;;;;;;;5074610;28;20099;-83
2023/10/23 14:15:32;;;;;;;5.03;1.90;;;;;;;;;;5055361;28;20035;-84
2023/10/23 14:17:58;;;;;;;6.32;1.52;;;;;;;;;;5056530;28;20043;-83
2023/10/23 14:20:23;;;;;;;3.85;1.85;;;;;;;;;;5056637;28;20024;-84
2023/10/23 14:22:49;;;;;;;4.75;2.35;;;;;;;;;;5056710;28;20024;-83
2023/10/23 14:25:14;;;;;;;5.85;2.22;;;;;;;;;;5056711;28;20734;-83
2023/10/23 14:27:40;;;;;;;8.23;2.95;;;;;;;;;;5054863;28;20036;-83
2023/10/23 14:30:05;;;;;;;7.07;2.40;;;;;;;;;;5056126;28;20081;-84
2023/10/23 14:32:31;;;;;;;8.55;2.60;;;;;;;;;;5055890;28;20031;-83
2023/10/23 14:34:58;;;;;;;7.78;2.67;;;;;;;;;;5056141;28;20021;-84
2023/10/23 14:37:23;;;;;;;6.97;3.15;;;;;;;;;;5056108;28;20044;-83
2023/10/23 14:39:49;;;;;;;10.35;3.08;;;;;;;;;;5055900;28;20040;-84